Time;durP1;ratioP1;P1;durP2;ratioP2;P2;SDS_P1;SDS_P2;PMS_P1;PMS_P2;Temp;Humidity;BMP_temperature;BMP_pressure;BME280_temperature;BME280_humidity;BME280_pressure;Samples;Min_cycle;Max_cycle;Signal;HPM_P1;HPM_P2
2022/05/23 00:02:00;;;;;;;0.40;0.30;;;16.30;99.90;;;;;;5043108;28;20381;-72
2022/05/23 00:04:29;;;;;;;0.40;0.30;;;16.20;99.90;;;;;;5051577;28;20385;-71
2022/05/23 00:06:55;;;;;;;0.40;0.20;;;16.10;99.90;;;;;;5051927;28;20403;-71
2022/05/23 00:09:21;;;;;;;0.40;0.20;;;16.10;99.90;;;;;;5052001;28;20409;-71
2022/05/23 00:11:47;;;;;;;0.40;0.20;;;16.10;99.90;;;;;;5051512;28;20919;-72
2022/05/23 00:14:15;;;;;;;0.40;0.20;;;16.10;99.90;;;;;;5052111;28;20774;-71
2022/05/23 00:16:44;;;;;;;0.40;0.20;;;16.00;99.90;;;;;;5051327;28;20385;-72
2022/05/23 00:19:11;;;;;;;0.40;0.20;;;16.00;99.90;;;;;;5052098;28;20381;-72
2022/05/23 00:21:40;;;;;;;0.40;0.20;;;15.90;99.90;;;;;;5051448;28;20377;-71
2022/05/23 00:24:06;;;;;;;0.40;0.20;;;15.80;99.90;;;;;;5052063;28;20441;-72
2022/05/23 00:26:32;;;;;;;0.40;0.20;;;16.00;99.90;;;;;;5051220;28;20707;-72
2022/05/23 00:28:58;;;;;;;0.40;0.30;;;16.00;99.90;;;;;;5051644;28;20436;-72
2022/05/23 00:31:23;;;;;;;0.40;0.20;;;16.00;99.90;;;;;;5051328;28;20726;-72
2022/05/23 00:36:34;;;;;;;0.40;0.20;;;15.90;99.90;;;;;;5036211;28;20385;-71
2022/05/23 00:39:00;;;;;;;0.40;0.30;;;16.00;99.90;;;;;;5051525;28;20778;-71
2022/05/23 00:44:32;;;;;;;0.40;0.20;;;16.00;99.90;;;;;;5050621;28;20392;-71
2022/05/23 00:47:00;;;;;;;0.40;0.40;;;15.90;99.90;;;;;;5048791;28;20391;-72
2022/05/23 00:49:34;;;;;;;0.40;0.20;;;16.00;99.90;;;;;;5031324;28;20399;-71
2022/05/23 00:52:18;;;;;;;0.40;0.20;;;16.00;99.90;;;;;;5031530;28;20387;-72
2022/05/23 00:54:46;;;;;;;0.70;0.50;;;16.00;99.90;;;;;;5030632;28;20996;-72
2022/05/23 00:57:26;;;;;;;0.40;0.30;;;15.90;99.90;;;;;;5031558;28;20379;-72
2022/05/23 00:59:52;;;;;;;0.40;0.20;;;15.90;99.90;;;;;;5030876;28;20375;-71
2022/05/23 01:02:19;;;;;;;0.40;0.20;;;15.90;99.90;;;;;;5031216;28;20752;-72
2022/05/23 01:04:46;;;;;;;0.40;0.30;;;15.90;99.90;;;;;;5030253;28;20442;-72
2022/05/23 01:07:13;;;;;;;0.40;0.20;;;15.90;99.90;;;;;;5031491;28;21136;-71
2022/05/23 01:09:39;;;;;;;0.40;0.20;;;15.80;99.90;;;;;;5030381;28;20537;-72
2022/05/23 01:12:06;;;;;;;0.40;0.20;;;15.80;99.90;;;;;;5030601;28;20430;-72
2022/05/23 01:15:14;;;;;;;0.40;0.20;;;15.90;99.90;;;;;;5030473;28;20430;-72
2022/05/23 01:17:40;;;;;;;0.40;0.20;;;16.00;99.90;;;;;;5001160;28;20937;-72
2022/05/23 01:20:07;;;;;;;0.40;0.20;;;16.00;99.90;;;;;;5030831;28;20378;-72
2022/05/23 01:22:51;;;;;;;0.40;0.20;;;16.20;99.90;;;;;;5030060;28;20886;-72
2022/05/23 01:25:28;;;;;;;0.40;0.30;;;16.10;99.90;;;;;;5046520;28;20385;-72
2022/05/23 01:27:54;;;;;;;0.40;0.20;;;16.10;99.90;;;;;;5050168;28;20413;-72
2022/05/23 01:30:20;;;;;;;0.40;0.40;;;16.10;99.90;;;;;;5050657;28;20382;-72
2022/05/23 01:32:46;;;;;;;0.40;0.30;;;16.20;99.90;;;;;;5049789;28;20389;-72
2022/05/23 01:35:12;;;;;;;0.40;0.30;;;16.20;99.90;;;;;;5050597;28;20491;-72
2022/05/23 01:37:38;;;;;;;0.60;0.60;;;16.10;99.90;;;;;;5050109;28;20522;-72
2022/05/23 01:40:07;;;;;;;0.40;0.30;;;16.20;99.90;;;;;;5050485;28;20488;-72
2022/05/23 01:42:33;;;;;;;0.40;0.30;;;16.20;99.90;;;;;;5049643;28;20405;-72
2022/05/23 01:44:59;;;;;;;0.40;0.23;;;16.20;99.90;;;;;;5050405;28;20384;-72
2022/05/23 01:47:25;;;;;;;0.40;0.20;;;16.20;99.90;;;;;;5043685;28;21014;-72
2022/05/23 01:49:50;;;;;;;0.40;0.20;;;16.10;99.90;;;;;;5029062;28;20867;-72
2022/05/23 01:52:16;;;;;;;0.40;0.30;;;16.10;99.90;;;;;;5030583;28;20380;-72
2022/05/23 01:54:42;;;;;;;0.40;0.20;;;16.10;99.90;;;;;;5029969;28;20383;-72
2022/05/23 01:57:11;;;;;;;0.40;0.20;;;16.00;99.90;;;;;;5030492;28;20463;-72
2022/05/23 02:02:21;;;;;;;0.60;0.60;;;16.20;99.90;;;;;;5030212;28;20379;-72
2022/05/23 02:04:46;;;;;;;0.50;0.50;;;16.20;99.90;;;;;;5029182;28;20392;-72
2022/05/23 02:07:13;;;;;;;0.40;0.20;;;16.20;99.90;;;;;;5030363;28;20383;-72
2022/05/23 02:09:40;;;;;;;0.40;0.20;;;16.30;99.90;;;;;;5029308;28;20383;-71
2022/05/23 02:12:07;;;;;;;0.40;0.25;;;16.40;99.90;;;;;;5029612;28;20493;-72
2022/05/23 02:14:34;;;;;;;0.40;0.20;;;16.30;99.90;;;;;;5029102;28;20557;-72
2022/05/23 02:16:59;;;;;;;0.40;0.20;;;16.40;99.90;;;;;;5030126;28;20899;-72
2022/05/23 02:19:25;;;;;;;0.40;0.20;;;16.40;99.90;;;;;;5028564;28;20471;-71
2022/05/23 02:21:51;;;;;;;0.43;0.30;;;16.40;99.90;;;;;;5029095;28;20466;-71
2022/05/23 02:24:17;;;;;;;0.70;0.70;;;16.40;99.90;;;;;;5037227;28;20377;-72
2022/05/23 02:26:43;;;;;;;0.50;0.50;;;16.30;99.90;;;;;;5049370;28;20699;-72
2022/05/23 02:29:10;;;;;;;0.40;0.30;;;16.30;99.90;;;;;;5049886;28;20462;-72
2022/05/23 02:31:36;;;;;;;0.40;0.20;;;16.40;99.90;;;;;;5048955;28;20385;-72
2022/05/23 02:34:03;;;;;;;0.90;0.90;;;16.50;99.90;;;;;;5049446;28;20824;-72
2022/05/23 02:36:28;;;;;;;0.40;0.40;;;16.50;99.90;;;;;;5049504;28;20382;-72
2022/05/23 02:38:55;;;;;;;0.40;0.20;;;16.50;99.90;;;;;;5044362;28;20461;-72
2022/05/23 02:41:22;;;;;;;0.40;0.30;;;16.60;99.90;;;;;;5039500;28;20416;-72
2022/05/23 02:43:48;;;;;;;0.90;0.70;;;16.60;99.90;;;;;;5028574;28;20748;-72
2022/05/23 02:46:14;;;;;;;0.40;0.20;;;16.60;99.90;;;;;;5045430;28;20393;-72
2022/05/23 02:48:39;;;;;;;0.40;0.20;;;16.60;99.90;;;;;;5048761;28;20513;-72
2022/05/23 02:51:06;;;;;;;0.50;0.50;;;16.50;99.90;;;;;;5049435;28;20385;-72
2022/05/23 02:53:31;;;;;;;0.40;0.30;;;16.60;99.90;;;;;;5049435;28;20734;-72
2022/05/23 02:55:57;;;;;;;0.50;0.50;;;16.70;99.90;;;;;;5048908;28;20377;-72
2022/05/23 02:58:22;;;;;;;0.40;0.30;;;16.70;99.90;;;;;;5033722;28;20391;-72
2022/05/23 03:00:48;;;;;;;0.40;0.25;;;16.70;99.90;;;;;;5028832;28;20436;-72
2022/05/23 03:03:14;;;;;;;0.40;0.20;;;16.70;99.90;;;;;;5032636;28;20435;-72
2022/05/23 03:05:46;;;;;;;0.50;0.43;;;17.00;99.90;;;;;;5032674;28;20879;-72
2022/05/23 03:08:14;;;;;;;0.40;0.30;;;17.20;99.90;;;;;;5033437;28;20413;-71
2022/05/23 03:10:40;;;;;;;0.40;0.20;;;17.30;99.90;;;;;;5032442;28;20410;-72
2022/05/23 03:13:06;;;;;;;0.40;0.20;;;17.40;99.90;;;;;;5032945;28;20400;-72
2022/05/23 03:15:33;;;;;;;0.40;0.30;;;17.30;99.90;;;;;;5033233;28;20382;-72
2022/05/23 03:17:59;;;;;;;0.40;0.20;;;17.10;99.90;;;;;;5032699;28;20399;-71
2022/05/23 03:20:26;;;;;;;0.40;0.30;;;17.00;99.90;;;;;;5033155;28;20419;-71
2022/05/23 03:28:20;;;;;;;0.40;0.30;;;16.70;99.90;;;;;;5052868;28;20413;-71
2022/05/23 03:30:49;;;;;;;0.40;0.20;;;16.40;99.90;;;;;;5034611;28;20397;-71
2022/05/23 03:33:16;;;;;;;0.40;0.20;;;16.60;99.90;;;;;;5051147;28;20388;-71
2022/05/23 03:35:42;;;;;;;0.40;0.20;;;16.50;99.90;;;;;;5032161;28;20371;-72
2022/05/23 03:38:09;;;;;;;0.40;0.20;;;16.40;99.90;;;;;;5049324;28;20405;-72
2022/05/23 03:40:37;;;;;;;0.43;0.35;;;16.40;99.90;;;;;;5052551;28;20754;-72
2022/05/23 03:43:04;;;;;;;0.90;0.90;;;16.20;99.90;;;;;;5052760;28;20561;-72
2022/05/23 03:45:30;;;;;;;0.60;0.60;;;15.90;99.90;;;;;;5052379;28;20538;-72
2022/05/23 03:47:57;;;;;;;0.40;0.30;;;16.10;99.90;;;;;;5033682;28;21027;-72
2022/05/23 03:50:26;;;;;;;0.40;0.30;;;16.10;99.90;;;;;;5052704;28;20467;-72
2022/05/23 03:52:52;;;;;;;0.40;0.20;;;16.10;99.90;;;;;;5051820;28;20425;-72
2022/05/23 03:55:18;;;;;;;0.40;0.20;;;16.10;99.90;;;;;;5034781;28;20381;-72
2022/05/23 03:57:44;;;;;;;0.43;0.40;;;16.00;99.90;;;;;;5051688;28;20386;-72
2022/05/23 04:00:12;;;;;;;0.80;0.80;;;16.00;99.90;;;;;;5052298;28;20370;-72
2022/05/23 04:02:38;;;;;;;0.50;0.40;;;16.30;99.90;;;;;;5034469;28;20386;-72
2022/05/23 04:05:05;;;;;;;0.40;0.30;;;16.20;99.90;;;;;;5051937;28;20386;-72
2022/05/23 04:07:33;;;;;;;0.40;0.30;;;16.10;99.90;;;;;;5052733;28;20418;-72
2022/05/23 04:09:59;;;;;;;0.40;0.20;;;16.10;99.90;;;;;;5051289;28;20408;-71
2022/05/23 04:12:25;;;;;;;0.40;0.20;;;16.20;99.90;;;;;;5051746;28;20378;-72
2022/05/23 04:14:50;;;;;;;0.40;0.20;;;16.10;99.90;;;;;;5051236;28;20384;-72
2022/05/23 04:17:16;;;;;;;0.40;0.20;;;16.00;99.90;;;;;;5034355;28;20453;-72
2022/05/23 04:19:42;;;;;;;0.40;0.20;;;16.00;99.90;;;;;;5051331;28;20391;-72
2022/05/23 04:22:07;;;;;;;0.40;0.30;;;16.00;99.90;;;;;;5051894;28;20397;-72
2022/05/23 04:24:33;;;;;;;0.40;0.20;;;16.00;99.90;;;;;;5042553;28;20851;-73
2022/05/23 04:26:59;;;;;;;0.40;0.20;;;16.10;99.90;;;;;;5032313;28;20928;-72
2022/05/23 04:29:25;;;;;;;0.40;0.20;;;16.30;99.90;;;;;;5042989;28;20428;-72
2022/05/23 04:31:50;;;;;;;0.40;0.20;;;16.20;99.90;;;;;;5040626;28;20433;-72
2022/05/23 04:37:01;;;;;;;1.20;0.90;;;16.40;99.90;;;;;;5050909;28;20929;-72
2022/05/23 04:39:27;;;;;;;0.50;0.40;;;16.50;99.90;;;;;;5043091;28;20491;-72
2022/05/23 04:41:53;;;;;;;0.40;0.40;;;16.70;99.90;;;;;;5043996;28;20480;-72
2022/05/23 04:44:18;;;;;;;0.40;0.20;;;16.80;99.90;;;;;;5031895;28;20445;-72
2022/05/23 04:49:41;;;;;;;0.40;0.20;;;16.90;99.90;;;;;;4982159;28;20438;-72
2022/05/23 04:52:13;;;;;;;0.40;0.20;;;16.90;99.90;;;;;;5035024;28;20484;-72
2022/05/23 04:54:41;;;;;;;0.40;0.20;;;16.90;99.90;;;;;;5043682;28;20497;-72
2022/05/23 04:57:08;;;;;;;0.40;0.30;;;17.00;99.90;;;;;;5049700;28;20385;-72
2022/05/23 04:59:34;;;;;;;0.40;0.20;;;17.00;99.90;;;;;;5032373;28;20379;-72
2022/05/23 05:02:01;;;;;;;0.40;0.20;;;17.00;99.90;;;;;;5031376;28;20395;-72
2022/05/23 05:04:28;;;;;;;0.40;0.20;;;17.10;99.90;;;;;;5049502;28;20393;-72
2022/05/23 05:06:54;;;;;;;0.40;0.30;;;17.20;99.90;;;;;;5045981;28;20459;-72
2022/05/23 05:09:19;;;;;;;0.40;0.30;;;17.20;99.90;;;;;;5034873;28;20415;-72
2022/05/23 05:11:45;;;;;;;0.40;0.20;;;17.20;99.90;;;;;;5038096;28;20827;-72
2022/05/23 05:14:11;;;;;;;0.40;0.20;;;17.20;99.90;;;;;;5051246;28;20738;-72
2022/05/23 05:16:37;;;;;;;0.40;0.20;;;17.30;99.90;;;;;;5051098;28;20381;-72
2022/05/23 05:19:03;;;;;;;0.40;0.30;;;17.40;99.90;;;;;;5049843;28;20872;-72
2022/05/23 05:21:54;;;;;;;0.40;0.30;;;17.40;99.90;;;;;;5041691;28;20882;-72
2022/05/23 05:24:23;;;;;;;0.40;0.20;;;17.40;99.90;;;;;;5033324;28;20489;-72
2022/05/23 05:26:51;;;;;;;0.40;0.20;;;17.40;99.90;;;;;;5038972;28;20532;-72
2022/05/23 05:29:23;;;;;;;0.40;0.30;;;17.40;99.90;;;;;;5026321;28;20428;-72
2022/05/23 05:32:01;;;;;;;0.40;0.20;;;17.50;99.90;;;;;;5028478;28;20414;-73
2022/05/23 05:34:45;;;;;;;0.40;0.30;;;17.50;99.90;;;;;;5030473;28;20391;-72
2022/05/23 05:37:15;;;;;;;0.40;0.20;;;17.60;99.90;;;;;;5030356;28;20387;-72
2022/05/23 05:39:43;;;;;;;0.40;0.40;;;17.60;99.90;;;;;;5030440;28;20379;-72
2022/05/23 05:42:21;;;;;;;0.40;0.20;;;17.60;99.90;;;;;;5029997;28;20387;-73
2022/05/23 05:44:56;;;;;;;0.90;0.70;;;17.70;99.90;;;;;;5029936;28;20457;-73
2022/05/23 05:47:22;;;;;;;0.40;0.20;;;17.80;99.90;;;;;;5030098;28;20379;-73
2022/05/23 05:49:55;;;;;;;0.40;0.30;;;17.90;99.90;;;;;;5029390;28;20379;-73
2022/05/23 05:52:24;;;;;;;0.40;0.20;;;17.90;99.90;;;;;;5030488;28;20391;-73
2022/05/23 05:54:51;;;;;;;0.40;0.20;;;17.90;99.90;;;;;;5029614;28;20456;-73
2022/05/23 05:57:17;;;;;;;0.40;0.20;;;17.90;99.90;;;;;;5030163;28;20383;-73
2022/05/23 05:59:43;;;;;;;0.40;0.30;;;18.10;99.90;;;;;;5030417;28;20383;-73
2022/05/23 06:02:09;;;;;;;0.40;0.20;;;18.10;99.90;;;;;;5029920;28;20398;-73
2022/05/23 06:04:35;;;;;;;0.40;0.20;;;18.30;99.90;;;;;;5030307;28;20423;-73
2022/05/23 06:12:31;;;;;;;0.40;0.20;;;18.20;99.90;;;;;;5030100;28;20916;-73
2022/05/23 06:14:57;;;;;;;0.40;0.38;;;18.30;99.90;;;;;;5029239;28;20391;-74
2022/05/23 06:17:23;;;;;;;0.40;0.20;;;18.30;99.90;;;;;;5030278;28;20418;-73
2022/05/23 06:19:49;;;;;;;0.50;0.50;;;18.40;99.90;;;;;;5029160;28;20391;-73
2022/05/23 06:22:17;;;;;;;0.40;0.20;;;18.50;99.90;;;;;;5029721;28;20402;-71
2022/05/23 06:24:44;;;;;;;0.40;0.30;;;18.60;99.90;;;;;;5040990;28;20381;-73
2022/05/23 06:27:11;;;;;;;0.40;0.30;;;18.70;99.90;;;;;;5049191;28;20389;-74
2022/05/23 06:29:38;;;;;;;0.40;0.20;;;18.80;99.90;;;;;;5049833;28;20445;-73
2022/05/23 06:32:05;;;;;;;0.50;0.50;;;18.80;99.90;;;;;;5049423;28;20473;-73
2022/05/23 06:34:31;;;;;;;0.70;0.70;;;19.10;99.90;;;;;;5049661;28;20396;-72
2022/05/23 06:36:57;;;;;;;0.40;0.20;;;19.00;99.90;;;;;;5048787;28;20919;-71
2022/05/23 06:39:23;;;;;;;0.40;0.20;;;19.10;99.90;;;;;;5050502;28;20393;-71
2022/05/23 06:41:49;;;;;;;0.40;0.20;;;18.90;99.90;;;;;;5048844;28;20443;-72
2022/05/23 06:44:15;;;;;;;0.40;0.20;;;18.80;99.90;;;;;;5049907;28;20411;-71
2022/05/23 06:46:41;;;;;;;0.40;0.30;;;18.70;99.90;;;;;;5050099;28;20453;-72
2022/05/23 06:49:07;;;;;;;0.40;0.30;;;18.60;99.90;;;;;;5049082;28;21065;-72
2022/05/23 06:51:34;;;;;;;0.40;0.20;;;18.60;99.90;;;;;;5045159;28;20398;-72
2022/05/23 06:54:00;;;;;;;0.50;0.50;;;18.60;99.90;;;;;;5023328;28;20451;-72
2022/05/23 06:56:28;;;;;;;0.40;0.20;;;18.60;99.90;;;;;;5040125;28;20858;-72
2022/05/23 06:58:54;;;;;;;0.50;0.50;;;18.60;99.90;;;;;;5040220;28;20535;-72
2022/05/23 07:01:19;;;;;;;0.40;0.30;;;18.70;99.90;;;;;;5038281;28;20395;-72
2022/05/23 07:03:46;;;;;;;0.40;0.20;;;18.80;99.90;;;;;;5042019;28;20502;-72
2022/05/23 07:14:26;;;;;;;0.40;0.20;;;18.90;99.90;;;;;;5029114;28;20422;-72
2022/05/23 07:16:53;;;;;;;0.40;0.30;;;19.10;99.90;;;;;;5026730;28;20426;-73
2022/05/23 07:19:19;;;;;;;0.40;0.30;;;19.10;99.90;;;;;;5036287;28;20407;-73
2022/05/23 07:21:47;;;;;;;0.40;0.30;;;19.40;99.90;;;;;;5044659;28;20443;-73
2022/05/23 07:24:13;;;;;;;0.40;0.30;;;19.50;99.90;;;;;;5043393;28;20747;-73
2022/05/23 07:26:39;;;;;;;0.40;0.30;;;19.60;99.90;;;;;;5049169;28;20414;-73
2022/05/23 07:29:05;;;;;;;0.40;0.20;;;19.80;99.90;;;;;;5033975;28;20442;-72
2022/05/23 07:31:31;;;;;;;0.40;0.30;;;19.80;99.90;;;;;;5021715;28;20399;-72
2022/05/23 07:33:58;;;;;;;0.40;0.20;;;19.80;99.90;;;;;;5036774;28;20407;-72
2022/05/23 07:36:24;;;;;;;0.40;0.30;;;20.00;99.90;;;;;;5035336;28;20414;-72
2022/05/23 07:38:49;;;;;;;0.40;0.30;;;20.20;99.90;;;;;;5036040;28;20405;-69
2022/05/23 07:41:15;;;;;;;0.40;0.30;;;20.30;99.90;;;;;;5032764;28;20416;-72
2022/05/23 07:43:42;;;;;;;0.40;0.30;;;20.40;99.90;;;;;;5037546;28;20455;-72
2022/05/23 07:46:13;;;;;;;0.40;0.20;;;20.40;99.90;;;;;;5035322;28;20472;-70
2022/05/23 07:48:46;;;;;;;0.70;0.50;;;20.60;99.90;;;;;;5035541;28;20417;-69
2022/05/23 07:51:14;;;;;;;0.77;0.68;;;20.60;99.90;;;;;;5033935;28;20549;-69
2022/05/23 08:01:53;;;;;;;0.40;0.30;;;20.90;99.90;;;;;;4989763;28;20456;-72
2022/05/23 08:04:20;;;;;;;0.40;0.20;;;21.10;99.90;;;;;;4998373;28;20390;-70
2022/05/23 08:06:47;;;;;;;0.40;0.20;;;21.20;99.90;;;;;;4998483;28;20480;-70
2022/05/23 08:09:13;;;;;;;0.40;0.30;;;20.90;99.90;;;;;;4996679;28;20421;-72
2022/05/23 08:11:42;;;;;;;0.40;0.20;;;20.90;99.90;;;;;;4999229;28;20504;-70
2022/05/23 08:14:08;;;;;;;0.40;0.20;;;20.90;99.90;;;;;;4997553;28;20453;-71
2022/05/23 08:16:35;;;;;;;0.40;0.30;;;20.90;99.90;;;;;;4999342;28;20512;-72
2022/05/23 08:19:03;;;;;;;0.40;0.20;;;20.90;99.90;;;;;;4996588;28;20409;-72
2022/05/23 08:21:28;;;;;;;0.40;0.30;;;20.80;99.90;;;;;;4996703;28;20750;-71
2022/05/23 08:23:54;;;;;;;0.40;0.20;;;20.70;99.90;;;;;;4997425;28;20390;-72
2022/05/23 08:26:23;;;;;;;0.40;0.30;;;20.60;99.90;;;;;;4998867;28;20388;-72
2022/05/23 08:28:49;;;;;;;0.40;0.30;;;20.60;99.90;;;;;;4998521;28;20422;-72
2022/05/23 08:31:15;;;;;;;0.40;0.30;;;20.70;99.90;;;;;;4996663;28;20466;-72
2022/05/23 08:33:40;;;;;;;0.40;0.20;;;20.60;99.90;;;;;;4998574;28;20469;-71
2022/05/23 08:36:06;;;;;;;0.40;0.30;;;20.60;99.90;;;;;;4997329;28;20839;-70
2022/05/23 08:38:32;;;;;;;0.40;0.30;;;20.70;99.90;;;;;;4997718;28;20405;-71
2022/05/23 08:41:23;;;;;;;1.80;1.20;;;20.90;99.90;;;;;;4994732;28;20394;-70
2022/05/23 08:44:10;;;;;;;0.40;0.20;;;20.70;99.90;;;;;;4998465;28;20718;-71
2022/05/23 08:46:57;;;;;;;0.40;0.25;;;20.60;99.90;;;;;;4990707;28;20761;-71
2022/05/23 08:49:45;;;;;;;0.40;0.38;;;20.40;99.90;;;;;;4997322;28;20422;-71
2022/05/23 08:52:18;;;;;;;0.40;0.20;;;20.10;99.90;;;;;;4998888;28;20423;-71
2022/05/23 08:54:50;;;;;;;1.00;0.90;;;20.20;99.90;;;;;;4997500;28;20457;-71
2022/05/23 08:57:25;;;;;;;0.40;0.30;;;20.10;99.90;;;;;;4999669;28;20404;-71
2022/05/23 08:59:57;;;;;;;0.40;0.20;;;20.10;99.90;;;;;;4997831;28;20714;-73
2022/05/23 09:03:15;;;;;;;0.40;0.20;;;20.00;99.90;;;;;;4980337;28;20394;-71
2022/05/23 09:05:50;;;;;;;0.50;0.50;;;19.90;99.90;;;;;;4981467;28;20403;-70
2022/05/23 09:08:21;;;;;;;0.40;0.20;;;19.90;99.90;;;;;;4999698;28;20510;-71
2022/05/23 09:10:55;;;;;;;0.40;0.40;;;19.80;99.90;;;;;;4997035;28;20407;-71
2022/05/23 09:13:23;;;;;;;0.40;0.20;;;19.70;99.90;;;;;;4993690;28;20458;-70
2022/05/23 09:15:59;;;;;;;0.40;0.30;;;19.80;99.90;;;;;;4996150;28;20383;-69
2022/05/23 09:18:30;;;;;;;0.40;0.20;;;19.90;99.90;;;;;;4994981;28;20429;-69
2022/05/23 09:21:00;;;;;;;0.40;0.30;;;19.70;99.90;;;;;;4994956;28;20945;-68
2022/05/23 09:23:32;;;;;;;0.40;0.32;;;19.30;99.90;;;;;;4996957;28;20389;-69
2022/05/23 09:26:02;;;;;;;0.50;0.50;;;18.90;99.90;;;;;;4995021;28;20784;-70
2022/05/23 09:28:27;;;;;;;0.40;0.40;;;18.60;99.90;;;;;;5000386;28;20447;-69
2022/05/23 09:31:06;;;;;;;0.50;0.40;;;18.50;99.90;;;;;;5000453;28;20525;-69
2022/05/23 09:33:40;;;;;;;1.40;1.30;;;18.40;99.90;;;;;;4998354;28;20395;-69
2022/05/23 09:36:18;;;;;;;1.40;0.93;;;18.20;99.90;;;;;;4997085;28;20492;-70
2022/05/23 09:38:56;;;;;;;0.40;0.30;;;18.10;99.90;;;;;;4998732;28;20409;-70
2022/05/23 09:49:55;;;;;;;0.40;0.30;;;17.90;99.90;;;;;;4993948;28;20942;-69
2022/05/23 09:52:27;;;;;;;0.70;0.70;;;18.00;99.90;;;;;;4984025;28;20407;-68
2022/05/23 09:54:58;;;;;;;0.40;0.20;;;17.90;99.90;;;;;;4996230;28;20432;-74
2022/05/23 09:57:28;;;;;;;0.40;0.20;;;17.60;99.90;;;;;;4998102;28;20397;-75
2022/05/23 10:00:17;;;;;;;0.50;0.50;;;17.60;99.90;;;;;;4996220;28;20406;-73
2022/05/23 10:02:59;;;;;;;0.40;0.30;;;17.70;99.90;;;;;;4995520;28;20387;-74
2022/05/23 10:05:28;;;;;;;0.70;0.60;;;17.70;99.90;;;;;;4997009;28;20420;-73
2022/05/23 10:07:59;;;;;;;0.40;0.28;;;17.80;99.90;;;;;;5002401;28;20413;-73
2022/05/23 10:10:28;;;;;;;0.40;0.30;;;17.80;99.90;;;;;;4994785;28;20428;-72
2022/05/23 10:13:12;;;;;;;0.40;0.20;;;17.70;99.90;;;;;;4993689;28;20402;-73
2022/05/23 10:15:45;;;;;;;0.40;0.22;;;17.60;99.90;;;;;;4979122;28;20417;-73
2022/05/23 10:18:19;;;;;;;0.40;0.30;;;17.60;99.90;;;;;;5001759;28;20734;-73
2022/05/23 10:20:46;;;;;;;0.80;0.80;;;17.60;99.90;;;;;;4996605;28;20390;-73
2022/05/23 10:23:21;;;;;;;1.20;1.10;;;17.60;99.90;;;;;;4994746;28;20390;-74
2022/05/23 10:26:06;;;;;;;1.10;1.10;;;17.70;99.90;;;;;;4996590;28;20543;-73
2022/05/23 10:28:56;;;;;;;0.40;0.30;;;17.60;99.90;;;;;;4976138;28;20416;-74
2022/05/23 10:31:37;;;;;;;0.40;0.30;;;17.50;99.90;;;;;;4998230;28;20473;-74
2022/05/23 10:34:32;;;;;;;0.40;0.30;;;17.60;99.90;;;;;;4997794;28;20403;-75
2022/05/23 10:37:01;;;;;;;0.40;0.20;;;17.50;99.90;;;;;;4994876;28;20402;-74
2022/05/23 10:42:31;;;;;;;0.40;0.20;;;17.50;99.90;;;;;;4995132;28;20443;-73
2022/05/23 10:45:15;;;;;;;1.00;0.50;;;17.40;99.90;;;;;;4998924;28;20408;-73
2022/05/23 10:48:02;;;;;;;0.40;0.30;;;17.50;99.90;;;;;;5002030;28;20411;-73
2022/05/23 10:50:47;;;;;;;0.40;0.30;;;17.40;99.90;;;;;;4997010;28;20393;-73
2022/05/23 10:53:37;;;;;;;0.40;0.20;;;17.50;99.90;;;;;;4992551;28;20903;-73
2022/05/23 10:56:20;;;;;;;0.40;0.40;;;17.60;99.90;;;;;;4995855;28;20418;-73
2022/05/23 10:58:59;;;;;;;0.40;0.28;;;17.60;99.90;;;;;;5000573;28;20408;-73
2022/05/23 11:01:56;;;;;;;0.40;0.20;;;17.70;99.90;;;;;;4994730;28;20409;-71
2022/05/23 11:04:40;;;;;;;0.40;0.30;;;17.80;99.90;;;;;;4992905;28;20502;-73
2022/05/23 11:07:46;;;;;;;0.40;0.30;;;18.10;99.90;;;;;;4996168;28;20403;-73
2022/05/23 11:10:29;;;;;;;0.40;0.20;;;18.10;99.90;;;;;;4942795;28;20507;-73
2022/05/23 11:13:16;;;;;;;0.40;0.30;;;18.40;99.90;;;;;;4994945;28;20955;-73
2022/05/23 11:16:06;;;;;;;0.40;0.30;;;18.40;99.90;;;;;;4999442;28;20431;-73
2022/05/23 11:18:58;;;;;;;0.40;0.22;;;18.50;99.90;;;;;;4997894;28;20749;-73
2022/05/23 11:21:53;;;;;;;0.40;0.27;;;19.00;99.90;;;;;;4994735;28;20390;-71
2022/05/23 11:24:28;;;;;;;1.10;0.95;;;19.60;99.90;;;;;;4997468;28;20410;-74
2022/05/23 11:35:30;;;;;;;0.40;0.30;;;21.80;99.90;;;;;;4997666;28;20772;-72
2022/05/23 11:38:00;;;;;;;0.40;0.30;;;22.30;99.90;;;;;;5000904;28;20388;-73
2022/05/23 11:40:25;;;;;;;0.40;0.20;;;22.50;99.90;;;;;;4999499;28;20400;-72
2022/05/23 11:43:02;;;;;;;0.40;0.30;;;22.60;99.90;;;;;;4995453;28;20756;-72
2022/05/23 11:48:45;;;;;;;0.40;0.20;;;23.20;99.90;;;;;;4995063;28;20429;-71
2022/05/23 11:51:24;;;;;;;0.40;0.40;;;23.50;99.90;;;;;;4996945;28;20416;-72
2022/05/23 11:53:56;;;;;;;0.50;0.40;;;23.00;99.90;;;;;;4998022;28;20410;-71
2022/05/23 11:56:38;;;;;;;0.40;0.30;;;23.40;99.90;;;;;;4995911;28;20426;-72
2022/05/23 11:59:28;;;;;;;0.40;0.20;;;24.20;99.90;;;;;;4995911;28;20489;-70
2022/05/23 12:02:10;;;;;;;0.40;0.20;;;25.00;99.90;;;;;;4954341;28;20408;-71
2022/05/23 12:04:51;;;;;;;0.40;0.20;;;24.00;99.90;;;;;;4998481;28;20413;-71
2022/05/23 12:07:38;;;;;;;0.40;0.20;;;24.80;99.90;;;;;;5000127;28;20392;-71
2022/05/23 12:10:21;;;;;;;0.40;0.20;;;25.50;99.90;;;;;;4997464;28;20446;-72
2022/05/23 12:12:52;;;;;;;0.40;0.20;;;25.90;99.90;;;;;;4978966;28;20828;-71
2022/05/23 12:15:43;;;;;;;0.40;0.20;;;26.60;99.90;;;;;;4996889;28;20437;-71
2022/05/23 12:18:37;;;;;;;0.40;0.20;;;26.80;99.90;;;;;;4992572;28;20390;-71
2022/05/23 12:21:34;;;;;;;0.40;0.20;;;25.80;99.90;;;;;;4985464;28;20445;-71
2022/05/23 12:24:29;;;;;;;0.40;0.20;;;26.90;99.90;;;;;;4997987;28;20388;-71
2022/05/23 12:26:59;;;;;;;0.40;0.20;;;26.90;99.90;;;;;;5003257;28;20404;-70
2022/05/23 12:29:30;;;;;;;0.40;0.20;;;26.60;99.90;;;;;;4997672;28;20418;-71
2022/05/23 12:32:18;;;;;;;0.40;0.20;;;27.40;99.20;;;;;;4998986;28;20535;-71
2022/05/23 12:34:47;;;;;;;0.40;0.20;;;27.50;99.90;;;;;;4995939;28;20433;-71
2022/05/23 12:37:37;;;;;;;0.40;0.20;;;28.00;99.90;;;;;;5000226;28;20453;-70
2022/05/23 12:40:10;;;;;;;0.40;0.20;;;27.60;98.70;;;;;;4995723;28;20411;-69
2022/05/23 12:43:03;;;;;;;0.40;0.20;;;28.80;92.70;;;;;;4997145;28;20402;-69
2022/05/23 12:45:50;;;;;;;0.40;0.20;;;28.80;91.60;;;;;;4997341;28;20398;-70
2022/05/23 12:48:25;;;;;;;0.40;0.20;;;28.80;93.20;;;;;;4996381;28;20465;-69
2022/05/23 12:51:11;;;;;;;0.40;0.20;;;29.60;85.80;;;;;;4996939;28;20891;-71
2022/05/23 12:54:09;;;;;;;0.40;0.20;;;28.80;91.50;;;;;;4998248;28;20555;-70
2022/05/23 12:57:02;;;;;;;0.40;0.20;;;29.00;84.90;;;;;;4996298;28;20429;-71
2022/05/23 12:59:37;;;;;;;0.50;0.20;;;27.70;82.70;;;;;;4996338;28;20404;-72
2022/05/23 13:02:12;;;;;;;0.40;0.30;;;27.40;88.50;;;;;;4995308;28;20408;-71
2022/05/23 13:04:48;;;;;;;0.40;0.20;;;27.30;85.90;;;;;;4998932;28;20403;-69
2022/05/23 13:07:20;;;;;;;0.50;0.40;;;27.70;83.20;;;;;;4993916;28;20421;-70
2022/05/23 13:09:49;;;;;;;0.60;0.50;;;27.60;84.70;;;;;;4995999;28;20632;-71
2022/05/23 13:12:24;;;;;;;0.40;0.25;;;28.00;79.50;;;;;;4995009;28;20408;-74
2022/05/23 13:14:56;;;;;;;0.40;0.20;;;27.30;76.40;;;;;;4997470;28;20472;-71
2022/05/23 13:17:31;;;;;;;0.40;0.20;;;27.60;80.40;;;;;;4996033;28;20402;-73
2022/05/23 13:22:43;;;;;;;0.40;0.20;;;26.70;84.50;;;;;;4996982;28;20457;-71
2022/05/23 13:25:09;;;;;;;0.40;0.20;;;27.40;85.20;;;;;;4996099;28;20407;-70
2022/05/23 13:27:44;;;;;;;0.40;0.30;;;28.10;80.50;;;;;;4993812;28;20894;-70
2022/05/23 13:30:25;;;;;;;0.40;0.20;;;28.40;77.30;;;;;;4994074;28;20408;-71
2022/05/23 13:33:11;;;;;;;0.82;0.75;;;27.70;80.50;;;;;;4995048;28;20399;-69
2022/05/23 13:35:38;;;;;;;0.50;0.30;;;27.50;79.70;;;;;;4996172;28;20495;-69
2022/05/23 13:38:14;;;;;;;0.40;0.30;;;26.80;82.00;;;;;;4998000;28;20444;-70
2022/05/23 13:40:46;;;;;;;0.40;0.20;;;26.50;85.60;;;;;;4994186;28;20406;-70
2022/05/23 13:43:18;;;;;;;0.40;0.30;;;26.10;89.70;;;;;;4993687;28;20443;-71
2022/05/23 13:45:48;;;;;;;0.40;0.30;;;25.70;89.50;;;;;;4996362;28;20404;-74
2022/05/23 13:48:27;;;;;;;0.40;0.30;;;25.80;90.70;;;;;;4991923;28;20457;-72
2022/05/23 13:50:59;;;;;;;1.30;0.90;;;25.70;90.70;;;;;;4995074;28;20407;-72
2022/05/23 13:53:41;;;;;;;0.57;0.52;;;25.70;90.90;;;;;;4997787;28;20402;-70
2022/05/23 13:56:07;;;;;;;0.40;0.20;;;25.40;91.50;;;;;;4996830;28;20393;-72
2022/05/23 13:58:42;;;;;;;0.50;0.30;;;25.10;92.30;;;;;;4994789;28;20407;-72
2022/05/23 14:01:26;;;;;;;0.50;0.50;;;25.00;92.20;;;;;;4994479;28;20400;-72
2022/05/23 14:04:00;;;;;;;0.40;0.30;;;24.90;91.30;;;;;;4995400;28;20434;-72
2022/05/23 14:06:36;;;;;;;0.40;0.30;;;24.80;91.70;;;;;;4994444;28;20910;-73
2022/05/23 14:09:05;;;;;;;0.40;0.20;;;24.70;90.80;;;;;;4997899;28;20448;-71
2022/05/23 14:11:39;;;;;;;0.40;0.20;;;24.70;91.30;;;;;;4994944;28;20488;-70
2022/05/23 14:14:27;;;;;;;0.40;0.30;;;24.60;92.00;;;;;;4997613;28;20450;-72
2022/05/23 14:16:59;;;;;;;0.40;0.20;;;24.50;92.90;;;;;;4993663;28;20405;-72
2022/05/23 14:19:28;;;;;;;0.40;0.20;;;24.30;93.60;;;;;;4982424;28;20410;-72